Aeroporto :
LOGIN :

Iscrizione | Disclaimer

   EN    FR    IT 

 










Sommario :    VFR   VFR Marginale   IFR   IFR Intensivo   IFR Molto Intensivo
Visibilità : 
Base nubi : 
>= 8 km
>= 3000ft
5 / 8 km
1000 / 3000 ft
1500m / 5 km
500 / 1000 ft
800 / 1500m
200 / 500 ft
< 800m
< 200 ft
Simboli :   Temporali  Nebbia  Neve Forte  Precipitazioni Forti  Vento > 20 kt
SIGMETs :   Varie  Temporali  Ghiacco  Turbolenza  Onda orograficha  Ceneri Vulcaniche






- Altitudine del aeroporto : 1363 ft


ETIC - Grafenwohr Army Air Field

ULTIMO METAR :
  • 260441Z AUTO 00000KT 0800 R14/0750V0900 FZFG VV001 00/00 A3009 RMK AO2 SLP214 $

METARs OBSOLETI :
  • 260356Z AUTO 00000KT 0400 R14/0450V0500 FZFG VV001 M01/M01 A3009 RMK AO2 SLP216 T10061006 $
  • 260256Z AUTO 00000KT 0400 R14/0550V0600 FZFG VV001 M01/M01 A3009 RMK AO2 SLP216 T10081008 57008 $
  • 260211Z AUTO 00000KT 0600 R14/0750V0800 FZFG VV001 M01/M01 A3010 RMK AO2 SLP220 $
  • 260156Z AUTO 00000KT 0800 R14/0900V1100 FZFG VV001 M01/M01 A3011 RMK AO2 SLP223 T10081008 $

Previsioni scadute.



MetMap, La meteo Aeronautica in un colpo d'occhio ! - Copyright ORBIFLY Dicembre 2007 - Disclaimer

ORBIFLY MET'MAP TEAM :

Programmazione e sviluppo : Alexandra Zaïnal
Concezione : Baudouin d'Aumeries
Aiuto per la programmazione : Marc-Olivier Méhu
Supporto tecnico e logistico : Manuel Goepfert
Aiuto per la traduzione : Arnaldo La Scala

Contatto : metmap@orbifly.com




FONTI E CREDITI :

   NOAA